createdAt,value
2022-11-29T00:00:50.052Z,114.88
2022-11-29T00:03:16.780Z,91.47
2022-11-29T00:05:43.289Z,84.30
2022-11-29T00:08:09.773Z,88.03
2022-11-29T00:10:37.616Z,101.88
2022-11-29T00:13:04.389Z,87.50
2022-11-29T00:15:30.863Z,86.20
2022-11-29T00:17:57.347Z,103.53
2022-11-29T00:20:23.828Z,96.25
2022-11-29T00:22:50.234Z,84.40
2022-11-29T00:25:16.674Z,91.80
2022-11-29T00:27:43.110Z,90.57
2022-11-29T00:30:09.854Z,88.45
2022-11-29T00:32:36.397Z,113.43
2022-11-29T00:35:09.346Z,99.10
2022-11-29T00:37:36.235Z,97.35
2022-11-29T00:40:04.565Z,96.80
2022-11-29T00:44:57.567Z,105.97
2022-11-29T00:47:24.073Z,93.53
2022-11-29T00:49:50.580Z,88.78
2022-11-29T00:52:17.086Z,95.43
2022-11-29T00:54:44.067Z,102.50
2022-11-29T00:57:10.749Z,93.03
2022-11-29T00:59:37.275Z,87.15
2022-11-29T01:02:03.854Z,88.45
2022-11-29T01:04:30.635Z,112.40
2022-11-29T01:06:57.089Z,86.80
2022-11-29T01:09:23.741Z,82.15
2022-11-29T01:11:50.570Z,95.15
2022-11-29T01:14:17.061Z,92.78
2022-11-29T01:16:43.550Z,91.38
2022-11-29T01:19:10.127Z,107.78
2022-11-29T01:21:37.708Z,95.07
2022-11-29T01:24:04.352Z,105.00
2022-11-29T01:26:31.805Z,85.03
2022-11-29T01:28:59.073Z,91.90
2022-11-29T01:31:36.336Z,101.55
2022-11-29T01:34:04.809Z,103.72
2022-11-29T01:36:31.851Z,82.53
2022-11-29T01:39:00.587Z,112.53
2022-11-29T01:41:29.809Z,117.43
2022-11-29T01:44:03.338Z,144.23
2022-11-29T01:46:33.081Z,119.32
2022-11-29T01:49:08.221Z,86.00
2022-11-29T01:51:37.433Z,112.18
2022-11-29T01:54:04.969Z,95.75
2022-11-29T01:56:34.571Z,111.55
2022-11-29T01:59:05.538Z,93.10
2022-11-29T02:01:32.411Z,94.55
2022-11-29T02:03:59.843Z,65.82
2022-11-29T02:06:28.240Z,63.70
2022-11-29T02:11:32.781Z,100.75
2022-11-29T02:14:28.801Z,114.95
2022-11-29T02:17:24.607Z,84.97
2022-11-29T02:20:18.884Z,75.75
2022-11-29T02:22:51.334Z,125.13
2022-11-29T02:25:40.093Z,130.48
2022-11-29T02:28:23.405Z,141.52
2022-11-29T02:31:39.105Z,162.82
2022-11-29T02:34:35.336Z,189.85
2022-11-29T02:37:22.613Z,108.40
2022-11-29T02:40:07.097Z,158.27
2022-11-29T02:43:10.552Z,72.93
2022-11-29T02:45:45.724Z,94.70
2022-11-29T02:48:33.538Z,66.07
2022-11-29T02:51:08.348Z,82.53
2022-11-29T02:54:07.472Z,87.47
2022-11-29T02:56:58.949Z,84.90
2022-11-29T03:00:02.685Z,50.15
2022-11-29T03:02:51.041Z,57.78
2022-11-29T03:05:50.955Z,98.88
2022-11-29T03:08:34.289Z,100.35
2022-11-29T03:11:18.944Z,96.50
2022-11-29T03:14:09.527Z,80.18
2022-11-29T03:16:54.235Z,103.05
2022-11-29T03:19:47.960Z,109.93
2022-11-29T03:22:39.414Z,82.55
2022-11-29T03:25:16.170Z,96.32
2022-11-29T03:27:58.037Z,63.35
2022-11-29T03:30:24.536Z,55.88
2022-11-29T03:33:03.562Z,90.15
2022-11-29T03:35:51.551Z,122.32
2022-11-29T03:38:29.805Z,126.63
2022-11-29T03:41:12.389Z,118.07
2022-11-29T03:43:56.747Z,97.82
2022-11-29T03:46:40.800Z,112.30
2022-11-29T03:49:17.730Z,126.55
2022-11-29T03:52:12.127Z,114.78
2022-11-29T03:55:18.972Z,91.80
2022-11-29T03:58:00.563Z,101.88
2022-11-29T04:00:45.470Z,119.10
2022-11-29T04:03:39.596Z,129.30
2022-11-29T04:06:30.657Z,106.72
2022-11-29T04:09:00.151Z,126.10
2022-11-29T04:11:55.146Z,101.85
2022-11-29T04:14:47.652Z,75.25
2022-11-29T04:17:35.965Z,67.15
2022-11-29T04:20:40.261Z,116.28
2022-11-29T04:23:46.662Z,71.03
2022-11-29T04:26:50.911Z,68.28
2022-11-29T04:29:45.480Z,50.72
2022-11-29T04:32:39.638Z,45.55
2022-11-29T04:35:34.236Z,98.07
2022-11-29T04:38:27.964Z,95.03
2022-11-29T04:41:31.778Z,52.67
2022-11-29T04:44:04.438Z,49.30
2022-11-29T04:46:50.848Z,89.65
2022-11-29T04:49:37.447Z,72.22
2022-11-29T04:52:06.926Z,51.90
2022-11-29T04:54:42.351Z,62.17
2022-11-29T04:57:22.577Z,81.45
2022-11-29T05:00:02.302Z,65.72
2022-11-29T05:02:34.994Z,51.72
2022-11-29T05:05:33.891Z,83.95
2022-11-29T05:08:45.123Z,80.93
2022-11-29T05:11:23.437Z,50.58
2022-11-29T05:14:17.807Z,41.42
2022-11-29T05:16:54.210Z,50.55
2022-11-29T05:19:33.488Z,40.40
2022-11-29T05:22:25.678Z,62.25
2022-11-29T05:25:31.330Z,50.50
2022-11-29T05:28:28.991Z,65.30
2022-11-29T05:31:33.188Z,49.88
2022-11-29T05:34:17.401Z,58.92
2022-11-29T05:37:09.225Z,67.05
2022-11-29T05:40:15.981Z,66.97
2022-11-29T05:42:59.189Z,50.75
2022-11-29T05:45:44.230Z,47.90
2022-11-29T05:48:22.409Z,49.13
2022-11-29T05:51:03.738Z,65.22
2022-11-29T05:53:42.801Z,64.75
2022-11-29T05:56:20.955Z,60.47
2022-11-29T05:58:56.338Z,49.55
2022-11-29T06:01:47.121Z,46.75
2022-11-29T06:04:38.538Z,39.17
2022-11-29T06:07:33.593Z,46.67
2022-11-29T06:10:04.439Z,51.97
2022-11-29T06:12:35.921Z,41.85
2022-11-29T06:15:40.884Z,46.67
2022-11-29T06:18:40.542Z,51.63
2022-11-29T06:21:28.681Z,30.35
2022-11-29T06:24:30.630Z,34.40
2022-11-29T06:27:29.405Z,42.25
2022-11-29T06:30:07.030Z,42.45
2022-11-29T06:32:50.553Z,31.15
2022-11-29T06:35:19.860Z,49.70
2022-11-29T06:37:50.401Z,59.00
2022-11-29T06:40:17.433Z,57.42
2022-11-29T06:42:44.159Z,48.30
2022-11-29T06:45:13.766Z,54.33
2022-11-29T06:47:40.129Z,38.40
2022-11-29T06:50:30.481Z,44.47
2022-11-29T06:53:26.737Z,65.78
2022-11-29T06:55:56.152Z,40.63
2022-11-29T06:58:42.673Z,64.60
2022-11-29T07:01:23.392Z,40.90
2022-11-29T07:04:01.552Z,48.85
2022-11-29T07:06:29.119Z,41.58
2022-11-29T07:09:04.372Z,48.65
2022-11-29T07:11:31.304Z,34.83
2022-11-29T07:13:57.958Z,40.67
2022-11-29T07:16:31.342Z,38.90
2022-11-29T07:19:00.735Z,38.17
2022-11-29T07:21:51.926Z,24.25
2022-11-29T07:24:48.905Z,40.65
2022-11-29T07:27:38.151Z,27.13
2022-11-29T07:30:14.100Z,43.13
2022-11-29T07:32:58.712Z,38.70
2022-11-29T07:35:38.561Z,35.75
2022-11-29T07:38:22.034Z,54.83
2022-11-29T07:41:11.982Z,44.95
2022-11-29T07:43:56.574Z,34.20
2022-11-29T07:46:23.279Z,37.70
2022-11-29T07:48:49.790Z,41.13
2022-11-29T07:51:16.358Z,45.25
2022-11-29T07:53:44.548Z,35.17
2022-11-29T07:56:12.425Z,33.78
2022-11-29T07:58:39.087Z,49.38
2022-11-29T08:01:05.802Z,38.65
2022-11-29T08:03:33.810Z,41.10
2022-11-29T08:06:00.231Z,35.15
2022-11-29T08:08:26.660Z,33.53
2022-11-29T08:10:53.150Z,25.33
2022-11-29T08:13:21.089Z,32.22
2022-11-29T08:15:48.622Z,37.28
2022-11-29T08:18:15.695Z,33.15
2022-11-29T08:20:42.713Z,29.73
2022-11-29T08:23:12.064Z,24.63
2022-11-29T08:25:38.689Z,41.13
2022-11-29T08:28:06.060Z,28.10
2022-11-29T08:30:32.817Z,44.08
2022-11-29T08:32:59.294Z,37.70
2022-11-29T08:35:25.935Z,18.58
2022-11-29T08:37:54.469Z,29.02
2022-11-29T08:40:21.090Z,20.77
2022-11-29T08:42:47.584Z,28.48
2022-11-29T08:45:14.051Z,38.05
2022-11-29T08:47:42.213Z,44.17
2022-11-29T08:50:14.578Z,27.80
2022-11-29T08:53:04.766Z,26.35
2022-11-29T08:55:36.889Z,37.25
2022-11-29T08:58:06.854Z,18.40
2022-11-29T09:00:34.456Z,25.63
2022-11-29T09:03:24.228Z,34.13
2022-11-29T09:05:51.172Z,19.77
2022-11-29T09:08:17.778Z,18.42
2022-11-29T09:10:44.530Z,17.27
2022-11-29T09:13:12.180Z,14.02
2022-11-29T09:15:40.209Z,27.42
2022-11-29T09:18:06.686Z,16.83
2022-11-29T09:20:34.023Z,26.10
2022-11-29T09:23:01.434Z,28.05
2022-11-29T09:25:28.703Z,34.80
2022-11-29T09:27:58.279Z,22.10
2022-11-29T09:30:24.780Z,33.92
2022-11-29T09:32:51.399Z,26.38
2022-11-29T09:35:17.970Z,34.08
2022-11-29T09:37:44.654Z,26.58
2022-11-29T09:40:25.522Z,26.38
2022-11-29T09:42:57.693Z,23.60
2022-11-29T09:45:36.477Z,17.02
2022-11-29T09:48:08.875Z,17.80
2022-11-29T09:50:47.865Z,21.65
2022-11-29T09:53:33.043Z,14.32
2022-11-29T09:56:16.735Z,22.02
2022-11-29T09:58:57.251Z,17.55
2022-11-29T10:01:29.745Z,12.65
2022-11-29T10:04:08.900Z,14.38
2022-11-29T10:06:40.968Z,22.42
2022-11-29T10:09:16.740Z,15.07
2022-11-29T10:12:04.473Z,22.77
2022-11-29T10:14:39.012Z,22.70
2022-11-29T10:19:56.518Z,22.42
2022-11-29T10:22:57.022Z,16.48
2022-11-29T10:25:33.647Z,14.65
2022-11-29T10:28:00.456Z,13.27
2022-11-29T10:30:28.145Z,17.42
2022-11-29T10:33:00.454Z,14.20
2022-11-29T10:35:27.009Z,19.05
2022-11-29T10:38:29.303Z,17.67
2022-11-29T10:40:48.407Z,18.25
2022-11-29T10:43:15.013Z,20.92
2022-11-29T10:45:50.536Z,30.85
2022-11-29T10:48:19.883Z,15.13
2022-11-29T10:50:49.160Z,17.48
2022-11-29T10:53:35.630Z,18.35
2022-11-29T10:56:27.100Z,19.88
2022-11-29T10:59:04.407Z,21.70
2022-11-29T11:01:38.253Z,25.27
2022-11-29T11:04:09.872Z,16.33
2022-11-29T11:06:51.363Z,28.20
2022-11-29T11:09:27.408Z,19.55
2022-11-29T11:11:57.463Z,19.92
2022-11-29T11:14:29.384Z,23.50
2022-11-29T11:16:56.033Z,19.13
2022-11-29T11:19:31.511Z,23.52
2022-11-29T11:22:00.932Z,20.95
2022-11-29T11:24:33.935Z,19.48
2022-11-29T11:27:01.035Z,22.92
2022-11-29T11:29:41.168Z,19.45
2022-11-29T11:32:16.994Z,19.85
2022-11-29T11:34:55.454Z,23.58
2022-11-29T11:37:25.109Z,24.90
2022-11-29T11:39:59.917Z,23.92
2022-11-29T11:42:45.262Z,23.42
2022-11-29T11:45:11.724Z,26.05
2022-11-29T11:47:46.578Z,23.13
2022-11-29T11:50:25.134Z,25.30
2022-11-29T11:52:55.320Z,26.35
2022-11-29T11:55:26.607Z,20.45
2022-11-29T11:58:09.728Z,21.65
2022-11-29T12:01:06.601Z,22.90
2022-11-29T12:03:37.137Z,22.83
2022-11-29T12:06:32.585Z,27.40
2022-11-29T12:09:28.562Z,27.83
2022-11-29T12:12:15.844Z,28.55
2022-11-29T12:15:16.206Z,24.60
2022-11-29T12:18:01.757Z,22.15
2022-11-29T12:20:39.654Z,23.67
2022-11-29T12:23:23.342Z,24.63
2022-11-29T12:26:04.361Z,24.63
2022-11-29T12:28:38.241Z,23.95
2022-11-29T12:31:26.668Z,22.48
2022-11-29T12:34:23.308Z,22.52
2022-11-29T12:37:08.137Z,26.90
2022-11-29T12:39:42.528Z,26.35
2022-11-29T12:42:16.377Z,27.90
2022-11-29T12:45:04.354Z,25.63
2022-11-29T12:47:52.630Z,22.60
2022-11-29T12:50:25.143Z,26.42
2022-11-29T12:53:00.644Z,27.13
2022-11-29T12:55:48.914Z,24.73
2022-11-29T12:58:45.662Z,27.08
2022-11-29T13:01:34.295Z,23.33
2022-11-29T13:04:37.376Z,23.00
2022-11-29T13:07:22.810Z,22.92
2022-11-29T13:10:17.625Z,30.70
2022-11-29T13:12:55.481Z,21.17
2022-11-29T13:15:27.330Z,27.13
2022-11-29T13:18:00.842Z,25.02
2022-11-29T13:20:57.209Z,23.80
2022-11-29T13:24:07.433Z,23.42
2022-11-29T13:26:27.007Z,25.05
2022-11-29T13:28:54.515Z,24.30
2022-11-29T13:31:23.711Z,25.08
2022-11-29T13:34:24.340Z,24.83
2022-11-29T13:37:12.452Z,24.35
2022-11-29T13:40:17.352Z,29.08
2022-11-29T13:42:55.538Z,25.02
2022-11-29T13:45:29.122Z,27.05
2022-11-29T13:47:59.599Z,25.42
2022-11-29T13:50:52.364Z,23.30
2022-11-29T13:53:24.818Z,27.35
2022-11-29T13:56:02.986Z,33.08
2022-11-29T13:58:30.526Z,34.35
2022-11-29T14:01:06.554Z,33.90
2022-11-29T14:03:42.378Z,31.50
2022-11-29T14:06:21.019Z,32.25
2022-11-29T14:09:18.737Z,35.80
2022-11-29T14:12:05.731Z,28.85
2022-11-29T14:14:39.590Z,25.77
2022-11-29T14:17:26.763Z,29.05
2022-11-29T14:20:25.228Z,27.40
2022-11-29T14:23:32.375Z,17.85
2022-11-29T14:25:58.829Z,18.35
2022-11-29T14:28:37.201Z,19.85
2022-11-29T14:31:05.844Z,20.38
2022-11-29T14:33:51.540Z,25.88
2022-11-29T14:36:29.668Z,22.67
2022-11-29T14:39:04.931Z,21.17
2022-11-29T14:42:10.523Z,18.48
2022-11-29T14:44:49.136Z,18.70
2022-11-29T14:47:26.301Z,16.33
2022-11-29T14:49:55.467Z,17.38
2022-11-29T14:52:32.850Z,19.08
2022-11-29T14:55:14.319Z,15.18
2022-11-29T14:57:46.892Z,17.88
2022-11-29T15:00:21.044Z,15.50
2022-11-29T15:02:52.342Z,19.05
2022-11-29T15:05:21.897Z,14.18
2022-11-29T15:08:00.091Z,17.25
2022-11-29T15:10:32.694Z,15.90
2022-11-29T15:13:04.086Z,12.75
2022-11-29T15:16:09.321Z,13.52
2022-11-29T15:18:49.847Z,20.67
2022-11-29T15:21:54.122Z,18.52
2022-11-29T15:24:26.804Z,14.70
2022-11-29T15:27:00.606Z,14.80
2022-11-29T15:29:29.889Z,12.15
2022-11-29T15:32:03.650Z,9.57
2022-11-29T15:34:48.012Z,9.38
2022-11-29T15:37:47.384Z,10.10
2022-11-29T15:40:23.175Z,9.95
2022-11-29T15:43:11.793Z,12.43
2022-11-29T15:45:39.342Z,12.48
2022-11-29T15:48:20.914Z,11.10
2022-11-29T15:51:29.285Z,7.65
2022-11-29T15:54:19.235Z,7.82
2022-11-29T15:57:06.870Z,7.75
2022-11-29T15:59:47.966Z,8.52
2022-11-29T16:02:31.553Z,14.30
2022-11-29T16:05:01.422Z,4.97
2022-11-29T16:07:32.385Z,6.57
2022-11-29T16:10:04.429Z,12.55
2022-11-29T16:12:31.873Z,6.38
2022-11-29T16:15:00.845Z,11.57
2022-11-29T16:17:33.700Z,9.35
2022-11-29T16:20:16.648Z,5.78
2022-11-29T16:22:43.267Z,10.40
2022-11-29T16:25:19.777Z,6.20
2022-11-29T16:27:47.534Z,9.75
2022-11-29T16:30:23.002Z,8.95
2022-11-29T16:33:01.605Z,9.70
2022-11-29T16:35:30.159Z,9.20
2022-11-29T16:37:56.925Z,10.13
2022-11-29T16:40:25.632Z,12.65
2022-11-29T16:43:04.064Z,9.90
2022-11-29T16:45:42.764Z,13.32
2022-11-29T16:48:27.617Z,15.35
2022-11-29T16:51:32.269Z,12.80
2022-11-29T16:54:18.643Z,10.75
2022-11-29T16:56:45.327Z,11.93
2022-11-29T16:59:24.534Z,13.63
2022-11-29T17:01:54.895Z,13.45
2022-11-29T17:04:24.515Z,11.43
2022-11-29T17:06:53.122Z,11.20
2022-11-29T17:09:24.531Z,12.52
2022-11-29T17:11:51.350Z,12.13
2022-11-29T17:14:17.901Z,9.90
2022-11-29T17:16:44.557Z,13.27
2022-11-29T17:19:15.863Z,12.88
2022-11-29T17:21:42.819Z,9.50
2022-11-29T17:24:15.701Z,13.07
2022-11-29T17:26:43.373Z,17.05
2022-11-29T17:29:11.595Z,32.10
2022-11-29T17:31:38.499Z,34.45
2022-11-29T17:34:05.774Z,57.28
2022-11-29T17:36:32.341Z,15.93
2022-11-29T17:38:59.787Z,17.98
2022-11-29T17:41:27.469Z,12.98
2022-11-29T17:43:55.424Z,19.77
2022-11-29T17:46:23.229Z,13.65
2022-11-29T17:48:53.702Z,16.92
2022-11-29T17:51:50.680Z,17.27
2022-11-29T17:54:09.260Z,14.20
2022-11-29T17:56:35.811Z,10.23
2022-11-29T17:59:03.568Z,9.98
2022-11-29T18:01:33.292Z,12.70
2022-11-29T18:04:02.286Z,13.35
2022-11-29T18:06:33.501Z,10.57
2022-11-29T18:09:02.055Z,8.82
2022-11-29T18:11:48.181Z,12.57
2022-11-29T18:14:27.979Z,12.02
2022-11-29T18:16:54.453Z,11.77
2022-11-29T18:19:22.523Z,10.32
2022-11-29T18:21:49.770Z,13.15
2022-11-29T18:24:16.545Z,9.18
2022-11-29T18:26:43.285Z,7.75
2022-11-29T18:29:09.904Z,11.85
2022-11-29T18:31:39.269Z,17.35
2022-11-29T18:34:11.180Z,10.23
2022-11-29T18:36:42.808Z,11.05
2022-11-29T18:39:13.972Z,10.38
2022-11-29T18:41:45.608Z,11.15
2022-11-29T18:44:14.371Z,11.32
2022-11-29T18:46:43.445Z,13.25
2022-11-29T18:49:12.814Z,10.93
2022-11-29T18:51:41.073Z,9.20
2022-11-29T18:54:07.737Z,14.60
2022-11-29T18:56:35.587Z,12.38
2022-11-29T18:59:06.254Z,12.98
2022-11-29T19:01:35.481Z,14.40
2022-11-29T19:04:02.173Z,15.30
2022-11-29T19:06:39.233Z,10.98
2022-11-29T19:09:11.371Z,10.35
2022-11-29T19:11:38.377Z,13.23
2022-11-29T19:14:10.986Z,12.02
2022-11-29T19:16:40.216Z,11.93
2022-11-29T19:19:06.847Z,16.35
2022-11-29T19:21:39.155Z,8.50
2022-11-29T19:24:15.657Z,13.27
2022-11-29T19:26:45.162Z,11.60
2022-11-29T19:29:13.023Z,10.52
2022-11-29T19:31:39.741Z,13.63
2022-11-29T19:34:06.568Z,11.98
2022-11-29T19:36:33.134Z,9.35
2022-11-29T19:39:01.924Z,10.57
2022-11-29T19:41:32.565Z,7.35
2022-11-29T19:44:01.580Z,9.60
2022-11-29T19:46:31.704Z,10.43
2022-11-29T19:49:01.241Z,11.98
2022-11-29T19:51:29.177Z,14.93
2022-11-29T19:54:00.016Z,9.07
2022-11-29T19:56:31.615Z,10.77
2022-11-29T19:59:04.935Z,15.50
2022-11-29T20:01:40.162Z,6.97
2022-11-29T20:04:18.208Z,10.00
2022-11-29T20:07:05.024Z,6.68
2022-11-29T20:09:52.221Z,12.50
2022-11-29T20:12:23.313Z,9.48
2022-11-29T20:15:00.937Z,11.88
2022-11-29T20:20:17.954Z,13.18
2022-11-29T20:23:00.712Z,9.45
2022-11-29T20:25:31.763Z,10.45
2022-11-29T20:30:45.492Z,8.30
2022-11-29T20:33:32.050Z,13.20
2022-11-29T20:36:27.025Z,9.05
2022-11-29T20:39:16.662Z,12.65
2022-11-29T20:48:03.678Z,10.68
2022-11-29T20:50:42.201Z,12.93
2022-11-29T20:53:26.892Z,9.23
2022-11-29T20:55:57.509Z,13.63
2022-11-29T21:00:56.099Z,12.30
2022-11-29T21:03:38.511Z,10.95
2022-11-29T21:06:11.097Z,14.38
2022-11-29T21:08:38.121Z,14.63
2022-11-29T21:11:11.444Z,20.00
2022-11-29T21:13:41.656Z,19.63
2022-11-29T21:16:11.492Z,13.15
2022-11-29T21:18:38.622Z,18.42
2022-11-29T21:21:20.122Z,14.75
2022-11-29T21:23:55.371Z,20.00
2022-11-29T21:26:31.752Z,14.52
2022-11-29T21:29:01.382Z,15.82
2022-11-29T21:31:28.123Z,16.52
2022-11-29T21:33:55.037Z,13.35
2022-11-29T21:36:21.687Z,17.08
2022-11-29T21:38:53.887Z,17.63
2022-11-29T21:41:21.546Z,13.43
2022-11-29T21:44:05.962Z,13.63
2022-11-29T21:46:33.779Z,15.43
2022-11-29T21:49:00.266Z,16.92
2022-11-29T21:51:26.692Z,14.80
2022-11-29T21:53:53.151Z,17.38
2022-11-29T21:56:19.641Z,15.20
2022-11-29T21:58:46.203Z,19.73
2022-11-29T22:01:16.080Z,15.20
2022-11-29T22:03:43.687Z,14.45
2022-11-29T22:06:13.041Z,14.02
2022-11-29T22:08:41.380Z,15.15
2022-11-29T22:13:37.059Z,16.77
2022-11-29T22:16:07.971Z,14.60
2022-11-29T22:18:35.231Z,18.73
2022-11-29T22:21:04.037Z,12.80
2022-11-29T22:23:30.987Z,13.77
2022-11-29T22:26:05.294Z,15.35
2022-11-29T22:28:32.068Z,14.88
2022-11-29T22:31:10.578Z,18.27
2022-11-29T22:33:38.079Z,15.13
2022-11-29T22:36:04.666Z,14.57
2022-11-29T22:38:31.577Z,16.08
2022-11-29T22:41:12.665Z,15.70
2022-11-29T22:43:40.804Z,17.98
2022-11-29T22:46:16.497Z,13.20
2022-11-29T22:48:44.577Z,16.85
2022-11-29T22:51:16.776Z,15.50
2022-11-29T22:53:48.799Z,19.50
2022-11-29T22:56:15.546Z,13.95
2022-11-29T22:58:42.262Z,14.98
2022-11-29T23:01:17.613Z,14.82
2022-11-29T23:03:51.693Z,13.30
2022-11-29T23:06:21.104Z,15.60
2022-11-29T23:08:49.453Z,15.43
2022-11-29T23:13:44.350Z,14.65
2022-11-29T23:16:20.638Z,15.65
2022-11-29T23:18:47.686Z,14.52
2022-11-29T23:21:17.228Z,20.63
2022-11-29T23:23:44.426Z,18.52
2022-11-29T23:26:26.469Z,15.00
2022-11-29T23:28:54.313Z,14.57
2022-11-29T23:31:22.058Z,21.05
2022-11-29T23:33:49.374Z,16.67
2022-11-29T23:36:16.757Z,16.05
2022-11-29T23:38:44.102Z,17.15
2022-11-29T23:41:14.385Z,14.65
2022-11-29T23:43:41.859Z,17.92
2022-11-29T23:46:14.385Z,17.73
2022-11-29T23:48:41.727Z,15.80
2022-11-29T23:51:08.170Z,15.48
2022-11-29T23:53:34.697Z,16.58
2022-11-29T23:56:04.031Z,16.83
2022-11-29T23:58:31.463Z,18.02
